Lebanon, New Hampshire
Current Conditions -  °F | °C
As of 9:53 AM on Monday 22 Dec 2014 (Local Time) from KLEB Reporting Station
Overcast Overcast  
Wind Chill: 30°   Ceiling: 3700
Heat Index: 30°   Visibility: 9mi
Dew Point: 25°   Wind: 0mph
Humidity: 82%   Direction: NA
Pressure: 30.38"   Gusts: NA
Location:  43.64°N, 72.25°W
Report Text: KLEB 221453Z 00000KT 9SM OVC037 M01/M04 A3038 RMK AO2 SLP298 T10111039 53004
Loading
Personal Weather Stations






























Interactive Weather Map New forecast layout! Learn more

10-Day Weather Forecast

Advertisements
Track Severe Weather on mobile